sensor_id;sensor_type;location;lat;lon;timestamp;P1;durP1;ratioP1;P2;durP2;ratioP2
43819;SDS011;59678;52.476;6.046;2022-08-21T00:00:28;11.70;;;10.57;;
43819;SDS011;59678;52.476;6.046;2022-08-21T00:03:02;14.93;;;11.25;;
43819;SDS011;59678;52.476;6.046;2022-08-21T00:05:28;12.55;;;11.43;;
43819;SDS011;59678;52.476;6.046;2022-08-21T00:07:54;13.98;;;12.77;;
43819;SDS011;59678;52.476;6.046;2022-08-21T00:10:20;15.98;;;14.00;;
43819;SDS011;59678;52.476;6.046;2022-08-21T00:12:46;16.73;;;15.35;;
43819;SDS011;59678;52.476;6.046;2022-08-21T00:15:13;17.13;;;15.60;;
43819;SDS011;59678;52.476;6.046;2022-08-21T00:17:39;18.95;;;17.35;;
43819;SDS011;59678;52.476;6.046;2022-08-21T00:20:06;15.57;;;14.07;;
43819;SDS011;59678;52.476;6.046;2022-08-21T00:22:33;16.20;;;14.50;;
43819;SDS011;59678;52.476;6.046;2022-08-21T00:24:59;11.38;;;9.35;;
43819;SDS011;59678;52.476;6.046;2022-08-21T00:27:24;12.13;;;10.80;;
43819;SDS011;59678;52.476;6.046;2022-08-21T00:29:50;14.00;;;12.70;;
43819;SDS011;59678;52.476;6.046;2022-08-21T00:32:21;14.98;;;13.45;;
43819;SDS011;59678;52.476;6.046;2022-08-21T00:34:46;15.75;;;14.13;;
43819;SDS011;59678;52.476;6.046;2022-08-21T00:37:12;16.70;;;15.13;;
43819;SDS011;59678;52.476;6.046;2022-08-21T00:39:37;17.98;;;16.17;;
43819;SDS011;59678;52.476;6.046;2022-08-21T00:42:03;16.73;;;15.30;;
43819;SDS011;59678;52.476;6.046;2022-08-21T00:44:29;18.83;;;17.02;;
43819;SDS011;59678;52.476;6.046;2022-08-21T00:46:56;15.63;;;14.30;;
43819;SDS011;59678;52.476;6.046;2022-08-21T00:49:22;17.45;;;15.88;;
43819;SDS011;59678;52.476;6.046;2022-08-21T00:51:49;19.73;;;18.02;;
43819;SDS011;59678;52.476;6.046;2022-08-21T00:54:15;21.17;;;19.42;;
43819;SDS011;59678;52.476;6.046;2022-08-21T00:56:41;19.27;;;17.70;;
43819;SDS011;59678;52.476;6.046;2022-08-21T00:59:07;20.27;;;18.73;;
43819;SDS011;59678;52.476;6.046;2022-08-21T01:01:33;18.88;;;17.23;;
43819;SDS011;59678;52.476;6.046;2022-08-21T01:03:59;19.17;;;17.60;;
43819;SDS011;59678;52.476;6.046;2022-08-21T01:06:24;23.25;;;21.25;;
43819;SDS011;59678;52.476;6.046;2022-08-21T01:08:50;20.73;;;18.90;;
43819;SDS011;59678;52.476;6.046;2022-08-21T01:11:15;20.17;;;18.20;;
43819;SDS011;59678;52.476;6.046;2022-08-21T01:13:42;18.48;;;17.02;;
43819;SDS011;59678;52.476;6.046;2022-08-21T01:16:11;19.58;;;17.80;;
43819;SDS011;59678;52.476;6.046;2022-08-21T01:18:37;20.83;;;18.98;;
43819;SDS011;59678;52.476;6.046;2022-08-21T01:23:28;21.20;;;19.15;;
43819;SDS011;59678;52.476;6.046;2022-08-21T01:25:54;18.75;;;17.15;;
43819;SDS011;59678;52.476;6.046;2022-08-21T01:28:19;22.17;;;20.13;;
43819;SDS011;59678;52.476;6.046;2022-08-21T01:30:46;21.52;;;19.63;;
43819;SDS011;59678;52.476;6.046;2022-08-21T01:33:13;20.88;;;19.25;;
43819;SDS011;59678;52.476;6.046;2022-08-21T01:35:38;22.45;;;20.25;;
43819;SDS011;59678;52.476;6.046;2022-08-21T01:38:04;20.27;;;18.55;;
43819;SDS011;59678;52.476;6.046;2022-08-21T01:40:30;20.88;;;19.17;;
43819;SDS011;59678;52.476;6.046;2022-08-21T01:42:55;20.13;;;18.33;;
43819;SDS011;59678;52.476;6.046;2022-08-21T01:45:21;17.65;;;15.85;;
43819;SDS011;59678;52.476;6.046;2022-08-21T01:47:46;20.15;;;17.92;;
43819;SDS011;59678;52.476;6.046;2022-08-21T01:50:13;15.93;;;14.15;;
43819;SDS011;59678;52.476;6.046;2022-08-21T01:52:39;13.70;;;12.35;;
43819;SDS011;59678;52.476;6.046;2022-08-21T01:55:06;10.75;;;8.85;;
43819;SDS011;59678;52.476;6.046;2022-08-21T01:57:32;11.73;;;10.18;;
43819;SDS011;59678;52.476;6.046;2022-08-21T01:59:58;10.13;;;8.75;;
43819;SDS011;59678;52.476;6.046;2022-08-21T02:02:24;9.40;;;8.50;;
43819;SDS011;59678;52.476;6.046;2022-08-21T02:04:49;13.23;;;8.88;;
43819;SDS011;59678;52.476;6.046;2022-08-21T02:07:15;8.65;;;7.32;;
43819;SDS011;59678;52.476;6.046;2022-08-21T02:09:40;9.05;;;7.38;;
43819;SDS011;59678;52.476;6.046;2022-08-21T02:12:07;8.50;;;7.40;;
43819;SDS011;59678;52.476;6.046;2022-08-21T02:14:33;11.15;;;6.53;;
43819;SDS011;59678;52.476;6.046;2022-08-21T02:16:59;8.40;;;7.25;;
43819;SDS011;59678;52.476;6.046;2022-08-21T02:19:25;13.18;;;6.50;;
43819;SDS011;59678;52.476;6.046;2022-08-21T02:21:50;8.63;;;5.85;;
43819;SDS011;59678;52.476;6.046;2022-08-21T02:24:15;9.48;;;6.50;;
43819;SDS011;59678;52.476;6.046;2022-08-21T02:26:41;9.75;;;5.88;;
43819;SDS011;59678;52.476;6.046;2022-08-21T02:29:07;7.15;;;5.45;;
43819;SDS011;59678;52.476;6.046;2022-08-21T02:31:33;7.57;;;5.00;;
43819;SDS011;59678;52.476;6.046;2022-08-21T02:33:59;7.55;;;4.85;;
43819;SDS011;59678;52.476;6.046;2022-08-21T02:36:26;9.75;;;4.55;;
43819;SDS011;59678;52.476;6.046;2022-08-21T02:38:52;9.23;;;5.85;;
43819;SDS011;59678;52.476;6.046;2022-08-21T02:41:18;7.07;;;3.90;;
43819;SDS011;59678;52.476;6.046;2022-08-21T02:43:45;6.55;;;4.28;;
43819;SDS011;59678;52.476;6.046;2022-08-21T02:46:12;5.40;;;3.80;;
43819;SDS011;59678;52.476;6.046;2022-08-21T02:48:38;8.63;;;4.22;;
43819;SDS011;59678;52.476;6.046;2022-08-21T02:51:08;8.45;;;3.30;;
43819;SDS011;59678;52.476;6.046;2022-08-21T02:53:34;8.73;;;4.07;;
43819;SDS011;59678;52.476;6.046;2022-08-21T02:56:01;10.50;;;4.60;;
43819;SDS011;59678;52.476;6.046;2022-08-21T02:58:29;7.15;;;4.35;;
43819;SDS011;59678;52.476;6.046;2022-08-21T03:00:57;6.10;;;4.35;;
43819;SDS011;59678;52.476;6.046;2022-08-21T03:03:24;7.38;;;5.05;;
43819;SDS011;59678;52.476;6.046;2022-08-21T03:05:50;7.28;;;4.53;;
43819;SDS011;59678;52.476;6.046;2022-08-21T03:08:17;6.10;;;4.72;;
43819;SDS011;59678;52.476;6.046;2022-08-21T03:10:43;9.73;;;5.32;;
43819;SDS011;59678;52.476;6.046;2022-08-21T03:13:09;6.32;;;4.85;;
43819;SDS011;59678;52.476;6.046;2022-08-21T03:15:36;10.48;;;4.82;;
43819;SDS011;59678;52.476;6.046;2022-08-21T03:18:02;7.93;;;4.50;;
43819;SDS011;59678;52.476;6.046;2022-08-21T03:20:30;9.73;;;5.28;;
43819;SDS011;59678;52.476;6.046;2022-08-21T03:22:56;6.28;;;4.53;;
43819;SDS011;59678;52.476;6.046;2022-08-21T03:25:22;9.18;;;5.30;;
43819;SDS011;59678;52.476;6.046;2022-08-21T03:27:48;10.38;;;5.88;;
43819;SDS011;59678;52.476;6.046;2022-08-21T03:30:14;7.22;;;4.75;;
43819;SDS011;59678;52.476;6.046;2022-08-21T03:32:40;6.53;;;5.82;;
43819;SDS011;59678;52.476;6.046;2022-08-21T03:35:06;7.75;;;5.18;;
43819;SDS011;59678;52.476;6.046;2022-08-21T03:37:32;9.05;;;6.05;;
43819;SDS011;59678;52.476;6.046;2022-08-21T03:39:58;8.93;;;6.78;;
43819;SDS011;59678;52.476;6.046;2022-08-21T03:42:23;7.18;;;6.03;;
43819;SDS011;59678;52.476;6.046;2022-08-21T03:44:49;7.38;;;4.72;;
43819;SDS011;59678;52.476;6.046;2022-08-21T03:47:14;7.22;;;5.18;;
43819;SDS011;59678;52.476;6.046;2022-08-21T03:49:40;9.38;;;4.15;;
43819;SDS011;59678;52.476;6.046;2022-08-21T03:52:06;9.00;;;5.55;;
43819;SDS011;59678;52.476;6.046;2022-08-21T03:54:31;9.25;;;6.57;;
43819;SDS011;59678;52.476;6.046;2022-08-21T03:56:57;6.03;;;4.35;;
43819;SDS011;59678;52.476;6.046;2022-08-21T03:59:23;6.63;;;6.00;;
43819;SDS011;59678;52.476;6.046;2022-08-21T04:01:56;9.50;;;5.80;;
43819;SDS011;59678;52.476;6.046;2022-08-21T04:04:22;10.07;;;5.75;;
43819;SDS011;59678;52.476;6.046;2022-08-21T04:06:48;10.38;;;6.68;;
43819;SDS011;59678;52.476;6.046;2022-08-21T04:09:15;9.77;;;7.57;;
43819;SDS011;59678;52.476;6.046;2022-08-21T04:11:41;9.48;;;7.80;;
43819;SDS011;59678;52.476;6.046;2022-08-21T04:14:06;10.38;;;7.70;;
43819;SDS011;59678;52.476;6.046;2022-08-21T04:16:32;13.18;;;8.05;;
43819;SDS011;59678;52.476;6.046;2022-08-21T04:18:58;10.85;;;7.95;;
43819;SDS011;59678;52.476;6.046;2022-08-21T04:21:24;11.88;;;8.98;;
43819;SDS011;59678;52.476;6.046;2022-08-21T04:23:49;14.65;;;11.52;;
43819;SDS011;59678;52.476;6.046;2022-08-21T04:26:15;10.95;;;8.10;;
43819;SDS011;59678;52.476;6.046;2022-08-21T04:28:41;13.75;;;11.55;;
43819;SDS011;59678;52.476;6.046;2022-08-21T04:31:07;11.63;;;10.52;;
43819;SDS011;59678;52.476;6.046;2022-08-21T04:33:33;10.55;;;9.65;;
43819;SDS011;59678;52.476;6.046;2022-08-21T04:35:58;14.38;;;9.38;;
43819;SDS011;59678;52.476;6.046;2022-08-21T04:38:24;10.57;;;9.50;;
43819;SDS011;59678;52.476;6.046;2022-08-21T04:40:50;11.13;;;9.05;;
43819;SDS011;59678;52.476;6.046;2022-08-21T04:43:16;9.55;;;7.93;;
43819;SDS011;59678;52.476;6.046;2022-08-21T04:45:43;12.32;;;9.23;;
43819;SDS011;59678;52.476;6.046;2022-08-21T04:48:10;11.85;;;8.02;;
43819;SDS011;59678;52.476;6.046;2022-08-21T04:53:07;10.43;;;8.15;;
43819;SDS011;59678;52.476;6.046;2022-08-21T04:55:34;11.77;;;7.78;;
43819;SDS011;59678;52.476;6.046;2022-08-21T04:57:59;8.68;;;5.85;;
43819;SDS011;59678;52.476;6.046;2022-08-21T05:00:25;9.13;;;5.35;;
43819;SDS011;59678;52.476;6.046;2022-08-21T05:02:51;8.68;;;4.97;;
43819;SDS011;59678;52.476;6.046;2022-08-21T05:05:21;6.25;;;4.60;;
43819;SDS011;59678;52.476;6.046;2022-08-21T05:07:47;6.32;;;3.88;;
43819;SDS011;59678;52.476;6.046;2022-08-21T05:10:13;7.45;;;3.40;;
43819;SDS011;59678;52.476;6.046;2022-08-21T05:12:39;10.10;;;3.75;;
43819;SDS011;59678;52.476;6.046;2022-08-21T05:15:07;6.10;;;3.47;;
43819;SDS011;59678;52.476;6.046;2022-08-21T05:17:32;6.93;;;2.97;;
43819;SDS011;59678;52.476;6.046;2022-08-21T05:19:58;8.10;;;2.80;;
43819;SDS011;59678;52.476;6.046;2022-08-21T05:22:24;9.30;;;2.92;;
43819;SDS011;59678;52.476;6.046;2022-08-21T05:24:50;6.65;;;2.60;;
43819;SDS011;59678;52.476;6.046;2022-08-21T05:27:15;9.70;;;2.85;;
43819;SDS011;59678;52.476;6.046;2022-08-21T05:29:41;8.48;;;2.80;;
43819;SDS011;59678;52.476;6.046;2022-08-21T05:32:10;4.82;;;2.25;;
43819;SDS011;59678;52.476;6.046;2022-08-21T05:34:36;7.30;;;2.35;;
43819;SDS011;59678;52.476;6.046;2022-08-21T05:37:02;5.95;;;2.17;;
43819;SDS011;59678;52.476;6.046;2022-08-21T05:39:28;8.68;;;2.50;;
43819;SDS011;59678;52.476;6.046;2022-08-21T05:41:53;5.28;;;2.40;;
43819;SDS011;59678;52.476;6.046;2022-08-21T05:44:19;7.25;;;2.00;;
43819;SDS011;59678;52.476;6.046;2022-08-21T05:46:44;8.60;;;2.70;;
43819;SDS011;59678;52.476;6.046;2022-08-21T05:49:10;4.70;;;1.90;;
43819;SDS011;59678;52.476;6.046;2022-08-21T05:51:36;5.75;;;2.17;;
43819;SDS011;59678;52.476;6.046;2022-08-21T05:54:02;6.80;;;2.00;;
43819;SDS011;59678;52.476;6.046;2022-08-21T05:56:28;7.30;;;2.00;;
43819;SDS011;59678;52.476;6.046;2022-08-21T05:58:53;6.63;;;2.08;;
43819;SDS011;59678;52.476;6.046;2022-08-21T06:01:19;7.10;;;1.85;;
43819;SDS011;59678;52.476;6.046;2022-08-21T06:03:45;7.53;;;1.88;;
43819;SDS011;59678;52.476;6.046;2022-08-21T06:06:10;5.70;;;1.63;;
43819;SDS011;59678;52.476;6.046;2022-08-21T06:08:36;7.65;;;2.08;;
43819;SDS011;59678;52.476;6.046;2022-08-21T06:11:02;3.40;;;1.58;;
43819;SDS011;59678;52.476;6.046;2022-08-21T06:13:28;6.30;;;1.92;;
43819;SDS011;59678;52.476;6.046;2022-08-21T06:16:10;5.82;;;1.80;;
43819;SDS011;59678;52.476;6.046;2022-08-21T06:18:36;5.75;;;1.60;;
43819;SDS011;59678;52.476;6.046;2022-08-21T06:21:02;11.45;;;2.55;;
43819;SDS011;59678;52.476;6.046;2022-08-21T06:23:28;7.03;;;1.92;;
43819;SDS011;59678;52.476;6.046;2022-08-21T06:25:54;7.13;;;1.80;;
43819;SDS011;59678;52.476;6.046;2022-08-21T06:28:20;5.90;;;1.98;;
43819;SDS011;59678;52.476;6.046;2022-08-21T06:30:45;6.45;;;2.03;;
43819;SDS011;59678;52.476;6.046;2022-08-21T06:33:11;6.65;;;1.73;;
43819;SDS011;59678;52.476;6.046;2022-08-21T06:35:37;10.00;;;2.30;;
43819;SDS011;59678;52.476;6.046;2022-08-21T06:38:02;8.18;;;1.98;;
43819;SDS011;59678;52.476;6.046;2022-08-21T06:40:28;5.35;;;1.67;;
43819;SDS011;59678;52.476;6.046;2022-08-21T06:42:54;6.55;;;1.95;;
43819;SDS011;59678;52.476;6.046;2022-08-21T06:45:20;6.85;;;2.05;;
43819;SDS011;59678;52.476;6.046;2022-08-21T06:47:46;7.05;;;1.67;;
43819;SDS011;59678;52.476;6.046;2022-08-21T06:50:11;9.77;;;1.83;;
43819;SDS011;59678;52.476;6.046;2022-08-21T06:52:37;4.55;;;1.50;;
43819;SDS011;59678;52.476;6.046;2022-08-21T06:55:08;6.43;;;1.75;;
43819;SDS011;59678;52.476;6.046;2022-08-21T06:57:34;6.20;;;1.60;;
43819;SDS011;59678;52.476;6.046;2022-08-21T06:59:59;8.10;;;1.70;;
43819;SDS011;59678;52.476;6.046;2022-08-21T07:02:25;5.68;;;1.60;;
43819;SDS011;59678;52.476;6.046;2022-08-21T07:04:50;4.88;;;1.42;;
43819;SDS011;59678;52.476;6.046;2022-08-21T07:07:16;4.22;;;1.38;;
43819;SDS011;59678;52.476;6.046;2022-08-21T07:09:42;6.22;;;1.80;;
43819;SDS011;59678;52.476;6.046;2022-08-21T07:12:07;8.25;;;1.52;;
43819;SDS011;59678;52.476;6.046;2022-08-21T07:14:33;2.28;;;1.00;;
43819;SDS011;59678;52.476;6.046;2022-08-21T07:16:59;8.13;;;2.25;;
43819;SDS011;59678;52.476;6.046;2022-08-21T07:19:24;7.55;;;1.92;;
43819;SDS011;59678;52.476;6.046;2022-08-21T07:21:50;5.15;;;1.35;;
43819;SDS011;59678;52.476;6.046;2022-08-21T07:24:16;5.70;;;1.55;;
43819;SDS011;59678;52.476;6.046;2022-08-21T07:26:42;5.40;;;1.70;;
43819;SDS011;59678;52.476;6.046;2022-08-21T07:29:07;7.80;;;1.48;;
43819;SDS011;59678;52.476;6.046;2022-08-21T07:31:33;5.82;;;1.90;;
43819;SDS011;59678;52.476;6.046;2022-08-21T07:33:58;4.47;;;1.58;;
43819;SDS011;59678;52.476;6.046;2022-08-21T07:36:24;3.25;;;1.20;;
43819;SDS011;59678;52.476;6.046;2022-08-21T07:38:53;3.22;;;1.13;;
43819;SDS011;59678;52.476;6.046;2022-08-21T07:41:20;5.10;;;1.20;;
43819;SDS011;59678;52.476;6.046;2022-08-21T07:43:46;5.88;;;2.03;;
43819;SDS011;59678;52.476;6.046;2022-08-21T07:46:12;5.80;;;1.30;;
43819;SDS011;59678;52.476;6.046;2022-08-21T07:48:38;4.82;;;1.10;;
43819;SDS011;59678;52.476;6.046;2022-08-21T07:51:07;1.90;;;0.95;;
43819;SDS011;59678;52.476;6.046;2022-08-21T07:53:33;2.83;;;1.55;;
43819;SDS011;59678;52.476;6.046;2022-08-21T07:55:59;2.92;;;1.05;;
43819;SDS011;59678;52.476;6.046;2022-08-21T07:58:25;6.15;;;1.48;;
43819;SDS011;59678;52.476;6.046;2022-08-21T08:00:50;7.65;;;1.60;;
43819;SDS011;59678;52.476;6.046;2022-08-21T08:03:16;6.15;;;1.80;;
43819;SDS011;59678;52.476;6.046;2022-08-21T08:05:41;3.83;;;1.02;;
43819;SDS011;59678;52.476;6.046;2022-08-21T08:08:07;4.95;;;1.40;;
43819;SDS011;59678;52.476;6.046;2022-08-21T08:10:32;8.00;;;2.08;;
43819;SDS011;59678;52.476;6.046;2022-08-21T08:12:58;7.47;;;1.40;;
43819;SDS011;59678;52.476;6.046;2022-08-21T08:15:25;5.53;;;1.30;;
43819;SDS011;59678;52.476;6.046;2022-08-21T08:17:51;4.38;;;1.10;;
43819;SDS011;59678;52.476;6.046;2022-08-21T08:20:17;4.78;;;1.27;;
43819;SDS011;59678;52.476;6.046;2022-08-21T08:22:43;5.03;;;1.45;;
43819;SDS011;59678;52.476;6.046;2022-08-21T08:25:09;5.28;;;1.50;;
43819;SDS011;59678;52.476;6.046;2022-08-21T08:27:35;4.00;;;1.33;;
43819;SDS011;59678;52.476;6.046;2022-08-21T08:30:01;5.15;;;1.60;;
43819;SDS011;59678;52.476;6.046;2022-08-21T08:32:27;6.18;;;1.58;;
43819;SDS011;59678;52.476;6.046;2022-08-21T08:34:53;6.47;;;1.70;;
43819;SDS011;59678;52.476;6.046;2022-08-21T08:37:19;5.15;;;1.30;;
43819;SDS011;59678;52.476;6.046;2022-08-21T08:39:44;4.65;;;1.40;;
43819;SDS011;59678;52.476;6.046;2022-08-21T08:42:19;6.93;;;1.90;;
43819;SDS011;59678;52.476;6.046;2022-08-21T08:44:46;6.95;;;2.33;;
43819;SDS011;59678;52.476;6.046;2022-08-21T08:47:13;5.70;;;1.60;;
43819;SDS011;59678;52.476;6.046;2022-08-21T08:52:17;5.53;;;2.10;;
43819;SDS011;59678;52.476;6.046;2022-08-21T08:54:45;9.25;;;1.95;;
43819;SDS011;59678;52.476;6.046;2022-08-21T08:57:16;9.25;;;1.98;;
43819;SDS011;59678;52.476;6.046;2022-08-21T08:59:43;7.93;;;1.98;;
43819;SDS011;59678;52.476;6.046;2022-08-21T09:02:12;4.13;;;1.73;;
43819;SDS011;59678;52.476;6.046;2022-08-21T09:04:39;5.13;;;2.30;;
43819;SDS011;59678;52.476;6.046;2022-08-21T09:07:09;7.30;;;2.10;;
43819;SDS011;59678;52.476;6.046;2022-08-21T09:12:06;9.32;;;2.38;;
43819;SDS011;59678;52.476;6.046;2022-08-21T09:17:04;11.13;;;2.42;;
43819;SDS011;59678;52.476;6.046;2022-08-21T09:22:35;12.18;;;2.30;;
43819;SDS011;59678;52.476;6.046;2022-08-21T09:27:39;7.07;;;2.17;;
43819;SDS011;59678;52.476;6.046;2022-08-21T09:30:05;6.93;;;1.58;;
43819;SDS011;59678;52.476;6.046;2022-08-21T09:32:32;8.90;;;2.15;;
43819;SDS011;59678;52.476;6.046;2022-08-21T09:35:00;7.70;;;1.80;;
43819;SDS011;59678;52.476;6.046;2022-08-21T09:37:28;8.18;;;2.22;;
43819;SDS011;59678;52.476;6.046;2022-08-21T09:39:54;8.18;;;2.17;;
43819;SDS011;59678;52.476;6.046;2022-08-21T09:42:24;6.38;;;1.80;;
43819;SDS011;59678;52.476;6.046;2022-08-21T09:45:09;10.75;;;2.35;;
43819;SDS011;59678;52.476;6.046;2022-08-21T09:47:35;9.77;;;2.00;;
43819;SDS011;59678;52.476;6.046;2022-08-21T09:52:50;6.10;;;1.48;;
43819;SDS011;59678;52.476;6.046;2022-08-21T09:55:22;8.23;;;1.88;;
43819;SDS011;59678;52.476;6.046;2022-08-21T09:58:08;8.75;;;2.13;;
43819;SDS011;59678;52.476;6.046;2022-08-21T10:00:34;7.28;;;2.03;;
43819;SDS011;59678;52.476;6.046;2022-08-21T10:03:11;12.43;;;1.92;;
43819;SDS011;59678;52.476;6.046;2022-08-21T10:05:37;7.57;;;2.00;;
43819;SDS011;59678;52.476;6.046;2022-08-21T10:08:03;8.52;;;2.42;;
43819;SDS011;59678;52.476;6.046;2022-08-21T10:10:31;6.57;;;1.77;;
43819;SDS011;59678;52.476;6.046;2022-08-21T10:13:06;6.32;;;1.80;;
43819;SDS011;59678;52.476;6.046;2022-08-21T10:15:56;8.27;;;1.90;;
43819;SDS011;59678;52.476;6.046;2022-08-21T10:21:00;6.13;;;1.65;;
43819;SDS011;59678;52.476;6.046;2022-08-21T10:23:34;7.75;;;2.00;;
43819;SDS011;59678;52.476;6.046;2022-08-21T10:28:33;9.27;;;1.83;;
43819;SDS011;59678;52.476;6.046;2022-08-21T10:31:03;6.30;;;1.88;;
43819;SDS011;59678;52.476;6.046;2022-08-21T10:34:08;6.05;;;1.33;;
43819;SDS011;59678;52.476;6.046;2022-08-21T10:36:45;10.48;;;2.50;;
43819;SDS011;59678;52.476;6.046;2022-08-21T10:39:15;10.18;;;2.72;;
43819;SDS011;59678;52.476;6.046;2022-08-21T10:47:11;7.93;;;1.73;;
43819;SDS011;59678;52.476;6.046;2022-08-21T10:52:59;6.33;;;1.70;;
43819;SDS011;59678;52.476;6.046;2022-08-21T10:55:15;7.78;;;1.80;;
43819;SDS011;59678;52.476;6.046;2022-08-21T11:00:16;6.25;;;1.63;;
43819;SDS011;59678;52.476;6.046;2022-08-21T11:02:43;9.77;;;2.05;;
43819;SDS011;59678;52.476;6.046;2022-08-21T11:05:33;5.90;;;1.75;;
43819;SDS011;59678;52.476;6.046;2022-08-21T11:10:26;5.32;;;1.38;;
43819;SDS011;59678;52.476;6.046;2022-08-21T11:13:00;6.45;;;1.50;;
43819;SDS011;59678;52.476;6.046;2022-08-21T11:15:33;7.78;;;1.77;;
43819;SDS011;59678;52.476;6.046;2022-08-21T11:20:46;4.60;;;1.70;;
43819;SDS011;59678;52.476;6.046;2022-08-21T11:23:17;5.15;;;1.23;;
43819;SDS011;59678;52.476;6.046;2022-08-21T11:25:45;6.43;;;1.85;;
43819;SDS011;59678;52.476;6.046;2022-08-21T11:28:17;4.30;;;1.50;;
43819;SDS011;59678;52.476;6.046;2022-08-21T11:33:59;6.93;;;1.77;;
43819;SDS011;59678;52.476;6.046;2022-08-21T11:36:35;3.42;;;1.10;;
43819;SDS011;59678;52.476;6.046;2022-08-21T11:41:44;7.57;;;1.85;;
43819;SDS011;59678;52.476;6.046;2022-08-21T11:44:15;5.03;;;1.55;;
43819;SDS011;59678;52.476;6.046;2022-08-21T11:46:53;9.10;;;1.65;;
43819;SDS011;59678;52.476;6.046;2022-08-21T11:49:36;6.68;;;1.40;;
43819;SDS011;59678;52.476;6.046;2022-08-21T11:54:55;6.32;;;1.63;;
43819;SDS011;59678;52.476;6.046;2022-08-21T11:57:24;6.95;;;1.42;;
43819;SDS011;59678;52.476;6.046;2022-08-21T12:02:21;6.03;;;1.83;;
43819;SDS011;59678;52.476;6.046;2022-08-21T12:04:49;3.55;;;1.45;;
43819;SDS011;59678;52.476;6.046;2022-08-21T12:07:28;5.78;;;1.33;;
43819;SDS011;59678;52.476;6.046;2022-08-21T12:09:55;10.27;;;2.28;;
43819;SDS011;59678;52.476;6.046;2022-08-21T12:12:28;3.45;;;1.30;;
43819;SDS011;59678;52.476;6.046;2022-08-21T12:15:11;6.68;;;2.28;;
43819;SDS011;59678;52.476;6.046;2022-08-21T12:17:38;4.90;;;1.20;;
43819;SDS011;59678;52.476;6.046;2022-08-21T12:23:03;6.40;;;1.55;;
43819;SDS011;59678;52.476;6.046;2022-08-21T12:28:01;5.97;;;1.83;;
43819;SDS011;59678;52.476;6.046;2022-08-21T12:32:58;5.53;;;2.15;;
43819;SDS011;59678;52.476;6.046;2022-08-21T12:35:25;7.30;;;2.00;;
43819;SDS011;59678;52.476;6.046;2022-08-21T12:40:40;4.35;;;1.40;;
43819;SDS011;59678;52.476;6.046;2022-08-21T12:43:06;5.45;;;1.90;;
43819;SDS011;59678;52.476;6.046;2022-08-21T12:45:39;7.18;;;1.83;;
43819;SDS011;59678;52.476;6.046;2022-08-21T12:48:20;8.32;;;2.30;;
43819;SDS011;59678;52.476;6.046;2022-08-21T12:53:17;6.97;;;1.92;;
43819;SDS011;59678;52.476;6.046;2022-08-21T12:55:49;7.10;;;1.95;;
43819;SDS011;59678;52.476;6.046;2022-08-21T12:58:18;6.18;;;2.10;;
43819;SDS011;59678;52.476;6.046;2022-08-21T13:00:47;7.85;;;1.98;;
43819;SDS011;59678;52.476;6.046;2022-08-21T13:03:14;9.45;;;2.78;;
43819;SDS011;59678;52.476;6.046;2022-08-21T13:05:41;6.55;;;2.20;;
43819;SDS011;59678;52.476;6.046;2022-08-21T13:08:08;5.65;;;2.05;;
43819;SDS011;59678;52.476;6.046;2022-08-21T13:10:35;7.03;;;2.72;;
43819;SDS011;59678;52.476;6.046;2022-08-21T13:13:02;7.57;;;2.08;;
43819;SDS011;59678;52.476;6.046;2022-08-21T13:15:30;8.95;;;2.45;;
43819;SDS011;59678;52.476;6.046;2022-08-21T13:17:56;6.90;;;2.50;;
43819;SDS011;59678;52.476;6.046;2022-08-21T13:20:32;7.85;;;2.70;;
43819;SDS011;59678;52.476;6.046;2022-08-21T13:22:59;4.78;;;2.10;;
43819;SDS011;59678;52.476;6.046;2022-08-21T13:25:27;5.45;;;2.45;;
43819;SDS011;59678;52.476;6.046;2022-08-21T13:28:00;6.07;;;2.63;;
43819;SDS011;59678;52.476;6.046;2022-08-21T13:30:29;7.93;;;3.08;;
43819;SDS011;59678;52.476;6.046;2022-08-21T13:32:57;5.43;;;2.63;;
43819;SDS011;59678;52.476;6.046;2022-08-21T13:36:26;6.32;;;2.50;;
43819;SDS011;59678;52.476;6.046;2022-08-21T13:38:20;7.47;;;2.13;;
43819;SDS011;59678;52.476;6.046;2022-08-21T13:40:54;7.95;;;2.30;;
43819;SDS011;59678;52.476;6.046;2022-08-21T13:43:25;8.32;;;2.10;;
43819;SDS011;59678;52.476;6.046;2022-08-21T13:45:55;5.97;;;2.10;;
43819;SDS011;59678;52.476;6.046;2022-08-21T13:48:22;6.45;;;2.15;;
43819;SDS011;59678;52.476;6.046;2022-08-21T13:50:49;10.30;;;2.72;;
43819;SDS011;59678;52.476;6.046;2022-08-21T13:53:34;7.20;;;2.03;;
43819;SDS011;59678;52.476;6.046;2022-08-21T13:56:01;7.50;;;2.13;;
43819;SDS011;59678;52.476;6.046;2022-08-21T13:58:28;8.13;;;2.03;;
43819;SDS011;59678;52.476;6.046;2022-08-21T14:00:54;7.80;;;2.55;;
43819;SDS011;59678;52.476;6.046;2022-08-21T14:03:31;10.85;;;2.85;;
43819;SDS011;59678;52.476;6.046;2022-08-21T14:05:58;9.20;;;2.47;;
43819;SDS011;59678;52.476;6.046;2022-08-21T14:08:36;8.32;;;3.05;;
43819;SDS011;59678;52.476;6.046;2022-08-21T14:11:04;8.05;;;2.60;;
43819;SDS011;59678;52.476;6.046;2022-08-21T14:13:42;6.93;;;1.90;;
43819;SDS011;59678;52.476;6.046;2022-08-21T14:16:14;7.18;;;2.20;;
43819;SDS011;59678;52.476;6.046;2022-08-21T14:18:44;4.40;;;1.45;;
43819;SDS011;59678;52.476;6.046;2022-08-21T14:21:11;8.55;;;2.72;;
43819;SDS011;59678;52.476;6.046;2022-08-21T14:23:38;7.38;;;3.15;;
43819;SDS011;59678;52.476;6.046;2022-08-21T14:26:05;6.65;;;2.40;;
43819;SDS011;59678;52.476;6.046;2022-08-21T14:28:39;8.65;;;2.70;;
43819;SDS011;59678;52.476;6.046;2022-08-21T14:31:13;8.13;;;2.95;;
43819;SDS011;59678;52.476;6.046;2022-08-21T14:33:45;6.45;;;2.53;;
43819;SDS011;59678;52.476;6.046;2022-08-21T14:36:11;7.65;;;2.05;;
43819;SDS011;59678;52.476;6.046;2022-08-21T14:38:38;4.43;;;1.90;;
43819;SDS011;59678;52.476;6.046;2022-08-21T14:41:08;7.28;;;1.83;;
43819;SDS011;59678;52.476;6.046;2022-08-21T14:43:35;6.22;;;1.50;;
43819;SDS011;59678;52.476;6.046;2022-08-21T14:46:00;7.35;;;1.85;;
43819;SDS011;59678;52.476;6.046;2022-08-21T14:48:26;5.22;;;1.42;;
43819;SDS011;59678;52.476;6.046;2022-08-21T14:50:52;4.93;;;1.40;;
43819;SDS011;59678;52.476;6.046;2022-08-21T14:53:18;7.00;;;1.80;;
43819;SDS011;59678;52.476;6.046;2022-08-21T14:55:43;4.57;;;1.45;;
43819;SDS011;59678;52.476;6.046;2022-08-21T14:58:28;4.28;;;1.33;;
43819;SDS011;59678;52.476;6.046;2022-08-21T15:00:54;5.70;;;1.60;;
43819;SDS011;59678;52.476;6.046;2022-08-21T15:03:20;5.40;;;1.40;;
43819;SDS011;59678;52.476;6.046;2022-08-21T15:05:48;5.65;;;1.85;;
43819;SDS011;59678;52.476;6.046;2022-08-21T15:08:15;5.55;;;1.58;;
43819;SDS011;59678;52.476;6.046;2022-08-21T15:10:40;4.18;;;1.52;;
43819;SDS011;59678;52.476;6.046;2022-08-21T15:13:06;5.30;;;1.75;;
43819;SDS011;59678;52.476;6.046;2022-08-21T15:15:34;5.53;;;1.92;;
43819;SDS011;59678;52.476;6.046;2022-08-21T15:18:00;5.63;;;1.60;;
43819;SDS011;59678;52.476;6.046;2022-08-21T15:20:26;7.95;;;2.05;;
43819;SDS011;59678;52.476;6.046;2022-08-21T15:22:51;8.25;;;1.75;;
43819;SDS011;59678;52.476;6.046;2022-08-21T15:25:17;5.65;;;1.67;;
43819;SDS011;59678;52.476;6.046;2022-08-21T15:27:43;3.38;;;1.70;;
43819;SDS011;59678;52.476;6.046;2022-08-21T15:30:09;4.97;;;1.50;;
43819;SDS011;59678;52.476;6.046;2022-08-21T15:32:34;5.38;;;1.33;;
43819;SDS011;59678;52.476;6.046;2022-08-21T15:35:00;2.90;;;1.20;;
43819;SDS011;59678;52.476;6.046;2022-08-21T15:37:28;5.88;;;1.42;;
43819;SDS011;59678;52.476;6.046;2022-08-21T15:39:55;3.53;;;1.52;;
43819;SDS011;59678;52.476;6.046;2022-08-21T15:42:20;7.68;;;2.22;;
43819;SDS011;59678;52.476;6.046;2022-08-21T15:44:46;6.18;;;2.10;;
43819;SDS011;59678;52.476;6.046;2022-08-21T15:47:13;6.93;;;2.20;;
43819;SDS011;59678;52.476;6.046;2022-08-21T15:49:40;6.65;;;1.58;;
43819;SDS011;59678;52.476;6.046;2022-08-21T15:52:17;8.27;;;1.42;;